sensor_id;sensor_type;location;lat;lon;timestamp;pressure;altitude;pressure_sealevel;temperature;humidity
80798;BME280;70202;52.238;10.680;2024-02-23T00:00:15;97022.47;;;10.96;81.24
80798;BME280;70202;52.238;10.680;2024-02-23T00:01:18;96949.50;;;10.51;81.17
80798;BME280;70202;52.238;10.680;2024-02-23T00:02:18;97040.34;;;11.08;81.23
80798;BME280;70202;52.238;10.680;2024-02-23T00:03:19;97022.47;;;10.96;80.85
80798;BME280;70202;52.238;10.680;2024-02-23T00:04:19;96896.91;;;10.12;80.99
80798;BME280;70202;52.238;10.680;2024-02-23T00:05:20;96955.09;;;10.49;81.02
80798;BME280;70202;52.238;10.680;2024-02-23T00:06:20;97040.06;;;11.01;80.90
80798;BME280;70202;52.238;10.680;2024-02-23T00:07:21;97029.19;;;10.92;81.10
80798;BME280;70202;52.238;10.680;2024-02-23T00:08:21;96958.78;;;10.48;80.97
80798;BME280;70202;52.238;10.680;2024-02-23T00:09:21;97040.50;;;10.97;81.08
80798;BME280;70202;52.238;10.680;2024-02-23T00:10:22;96970.25;;;10.52;81.29
80798;BME280;70202;52.238;10.680;2024-02-23T00:11:23;97035.34;;;10.94;81.28
80798;BME280;70202;52.238;10.680;2024-02-23T00:12:23;97008.94;;;10.56;80.93
80798;BME280;70202;52.238;10.680;2024-02-23T00:13:24;96992.78;;;10.54;81.46
80798;BME280;70202;52.238;10.680;2024-02-23T00:14:24;96958.94;;;10.37;81.40
80798;BME280;70202;52.238;10.680;2024-02-23T00:15:25;97043.78;;;10.91;81.13
80798;BME280;70202;52.238;10.680;2024-02-23T00:16:25;97090.22;;;10.99;81.43
80798;BME280;70202;52.238;10.680;2024-02-23T00:17:26;97072.31;;;10.96;80.90
80798;BME280;70202;52.238;10.680;2024-02-23T00:18:27;97047.38;;;10.82;81.29
80798;BME280;70202;52.238;10.680;2024-02-23T00:19:27;97063.56;;;10.83;81.00
80798;BME280;70202;52.238;10.680;2024-02-23T00:20:27;97024.72;;;10.71;80.62
80798;BME280;70202;52.238;10.680;2024-02-23T00:21:28;97043.91;;;10.70;81.05
80798;BME280;70202;52.238;10.680;2024-02-23T00:22:28;97001.91;;;10.43;80.93
80798;BME280;70202;52.238;10.680;2024-02-23T00:23:29;96978.91;;;10.17;80.13
80798;BME280;70202;52.238;10.680;2024-02-23T00:24:29;97006.06;;;10.38;80.30
80798;BME280;70202;52.238;10.680;2024-02-23T00:25:29;97087.94;;;10.85;80.31
80798;BME280;70202;52.238;10.680;2024-02-23T00:26:30;97086.91;;;10.86;80.14
80798;BME280;70202;52.238;10.680;2024-02-23T00:27:30;96994.66;;;10.23;79.92
80798;BME280;70202;52.238;10.680;2024-02-23T00:28:31;97091.19;;;10.79;80.21
80798;BME280;70202;52.238;10.680;2024-02-23T00:29:31;97113.41;;;10.74;80.15
80798;BME280;70202;52.238;10.680;2024-02-23T00:30:31;97062.94;;;10.60;79.85
80798;BME280;70202;52.238;10.680;2024-02-23T00:31:32;97027.94;;;10.36;79.83
80798;BME280;70202;52.238;10.680;2024-02-23T00:32:32;97105.97;;;10.76;79.56
80798;BME280;70202;52.238;10.680;2024-02-23T00:33:33;97099.50;;;10.67;79.44
80798;BME280;70202;52.238;10.680;2024-02-23T00:34:33;97123.16;;;10.76;79.95
80798;BME280;70202;52.238;10.680;2024-02-23T00:35:34;97095.75;;;10.59;79.48
80798;BME280;70202;52.238;10.680;2024-02-23T00:36:34;97130.47;;;10.76;79.45
80798;BME280;70202;52.238;10.680;2024-02-23T00:37:34;97087.44;;;10.50;79.50
80798;BME280;70202;52.238;10.680;2024-02-23T00:38:35;97107.66;;;10.58;78.95
80798;BME280;70202;52.238;10.680;2024-02-23T00:39:36;97134.63;;;10.70;79.03
80798;BME280;70202;52.238;10.680;2024-02-23T00:40:37;97144.50;;;10.71;79.43
80798;BME280;70202;52.238;10.680;2024-02-23T00:41:38;97067.13;;;10.24;79.17
80798;BME280;70202;52.238;10.680;2024-02-23T00:42:39;97133.13;;;10.57;79.27
80798;BME280;70202;52.238;10.680;2024-02-23T00:43:40;97134.13;;;10.56;79.35
80798;BME280;70202;52.238;10.680;2024-02-23T00:44:40;97082.25;;;10.17;79.40
80798;BME280;70202;52.238;10.680;2024-02-23T00:45:41;97149.19;;;10.60;79.51
80798;BME280;70202;52.238;10.680;2024-02-23T00:46:41;97067.22;;;10.13;79.47
80798;BME280;70202;52.238;10.680;2024-02-23T00:47:43;97136.84;;;10.56;79.46
80798;BME280;70202;52.238;10.680;2024-02-23T00:48:43;97119.16;;;10.40;78.99
80798;BME280;70202;52.238;10.680;2024-02-23T00:49:44;97126.66;;;10.48;79.74
80798;BME280;70202;52.238;10.680;2024-02-23T00:50:44;97152.06;;;10.58;79.58
80798;BME280;70202;52.238;10.680;2024-02-23T00:51:44;97052.56;;;9.94;79.36
80798;BME280;70202;52.238;10.680;2024-02-23T00:52:45;97129.78;;;10.43;79.36
80798;BME280;70202;52.238;10.680;2024-02-23T00:53:45;97138.72;;;10.55;79.21
80798;BME280;70202;52.238;10.680;2024-02-23T00:54:46;97135.97;;;10.45;79.27
80798;BME280;70202;52.238;10.680;2024-02-23T00:55:46;97143.56;;;10.51;79.16
80798;BME280;70202;52.238;10.680;2024-02-23T00:56:47;97146.56;;;10.48;79.51
80798;BME280;70202;52.238;10.680;2024-02-23T00:57:47;97064.72;;;10.00;78.94
80798;BME280;70202;52.238;10.680;2024-02-23T00:58:47;97052.66;;;9.93;78.63
80798;BME280;70202;52.238;10.680;2024-02-23T00:59:48;97064.69;;;9.90;78.42
80798;BME280;70202;52.238;10.680;2024-02-23T01:00:48;97014.56;;;9.52;78.76
80798;BME280;70202;52.238;10.680;2024-02-23T01:01:49;97105.97;;;10.05;78.58
80798;BME280;70202;52.238;10.680;2024-02-23T01:02:49;97163.28;;;10.44;78.77
80798;BME280;70202;52.238;10.680;2024-02-23T01:03:49;97090.31;;;9.97;78.82
80798;BME280;70202;52.238;10.680;2024-02-23T01:04:50;97179.91;;;10.41;78.52
80798;BME280;70202;52.238;10.680;2024-02-23T01:05:50;97175.00;;;10.35;78.22
80798;BME280;70202;52.238;10.680;2024-02-23T01:06:51;97187.25;;;10.50;78.56
80798;BME280;70202;52.238;10.680;2024-02-23T01:07:51;97091.88;;;9.90;78.50
80798;BME280;70202;52.238;10.680;2024-02-23T01:08:52;97213.78;;;10.58;78.45
80798;BME280;70202;52.238;10.680;2024-02-23T01:09:52;97184.47;;;10.40;77.94
80798;BME280;70202;52.238;10.680;2024-02-23T01:10:52;97196.75;;;10.35;77.83
80798;BME280;70202;52.238;10.680;2024-02-23T01:11:53;97184.59;;;10.39;78.29
80798;BME280;70202;52.238;10.680;2024-02-23T01:12:53;97210.00;;;10.49;78.02
80798;BME280;70202;52.238;10.680;2024-02-23T01:13:54;97129.38;;;9.96;77.63
80798;BME280;70202;52.238;10.680;2024-02-23T01:14:54;97220.94;;;10.59;77.79
80798;BME280;70202;52.238;10.680;2024-02-23T01:15:55;97220.34;;;10.55;77.78
80798;BME280;70202;52.238;10.680;2024-02-23T01:16:55;97212.44;;;10.52;77.98
80798;BME280;70202;52.238;10.680;2024-02-23T01:17:56;97232.69;;;10.59;77.95
80798;BME280;70202;52.238;10.680;2024-02-23T01:18:56;97247.16;;;10.60;77.79
80798;BME280;70202;52.238;10.680;2024-02-23T01:19:57;97204.41;;;10.41;77.44
80798;BME280;70202;52.238;10.680;2024-02-23T01:20:57;97167.38;;;10.08;77.30
80798;BME280;70202;52.238;10.680;2024-02-23T01:21:58;97165.53;;;10.08;77.48
80798;BME280;70202;52.238;10.680;2024-02-23T01:23:01;97232.34;;;10.52;77.38
80798;BME280;70202;52.238;10.680;2024-02-23T01:24:01;97135.09;;;9.93;77.24
80798;BME280;70202;52.238;10.680;2024-02-23T01:25:02;97245.09;;;10.52;77.69
80798;BME280;70202;52.238;10.680;2024-02-23T01:26:02;97237.28;;;10.59;77.22
80798;BME280;70202;52.238;10.680;2024-02-23T01:27:03;97223.94;;;10.56;77.17
80798;BME280;70202;52.238;10.680;2024-02-23T01:28:04;97143.44;;;10.01;77.25
80798;BME280;70202;52.238;10.680;2024-02-23T01:29:04;97192.38;;;10.22;76.73
80798;BME280;70202;52.238;10.680;2024-02-23T01:30:05;97263.09;;;10.64;76.78
80798;BME280;70202;52.238;10.680;2024-02-23T01:31:09;97228.78;;;10.52;77.05
80798;BME280;70202;52.238;10.680;2024-02-23T01:32:10;97259.75;;;10.61;76.82
80798;BME280;70202;52.238;10.680;2024-02-23T01:33:11;97261.38;;;10.63;76.16
80798;BME280;70202;52.238;10.680;2024-02-23T01:34:11;97107.59;;;9.66;76.66
80798;BME280;70202;52.238;10.680;2024-02-23T01:35:12;97164.28;;;9.91;76.16
80798;BME280;70202;52.238;10.680;2024-02-23T01:36:12;97238.53;;;10.55;76.55
80798;BME280;70202;52.238;10.680;2024-02-23T01:37:12;97180.44;;;10.14;75.91
80798;BME280;70202;52.238;10.680;2024-02-23T01:38:13;97254.47;;;10.59;76.15
80798;BME280;70202;52.238;10.680;2024-02-23T01:39:19;97225.38;;;10.29;76.01
80798;BME280;70202;52.238;10.680;2024-02-23T01:40:19;97161.56;;;9.91;76.02
80798;BME280;70202;52.238;10.680;2024-02-23T01:41:19;97244.31;;;10.40;75.94
80798;BME280;70202;52.238;10.680;2024-02-23T01:42:20;97194.69;;;10.06;75.26
80798;BME280;70202;52.238;10.680;2024-02-23T01:43:20;97178.59;;;9.93;75.60
80798;BME280;70202;52.238;10.680;2024-02-23T01:44:21;97205.00;;;10.02;75.31
80798;BME280;70202;52.238;10.680;2024-02-23T01:45:21;97182.56;;;9.89;75.75
80798;BME280;70202;52.238;10.680;2024-02-23T01:46:22;97223.16;;;10.02;75.64
80798;BME280;70202;52.238;10.680;2024-02-23T01:47:25;97283.75;;;10.46;75.24
80798;BME280;70202;52.238;10.680;2024-02-23T01:48:26;97212.41;;;10.00;75.36
80798;BME280;70202;52.238;10.680;2024-02-23T01:49:27;97286.47;;;10.46;75.25
80798;BME280;70202;52.238;10.680;2024-02-23T01:50:32;97241.47;;;10.21;74.75
80798;BME280;70202;52.238;10.680;2024-02-23T01:51:33;97287.47;;;10.45;75.23
80798;BME280;70202;52.238;10.680;2024-02-23T01:52:34;97277.97;;;10.39;75.22
80798;BME280;70202;52.238;10.680;2024-02-23T01:53:35;97206.47;;;9.86;74.56
80798;BME280;70202;52.238;10.680;2024-02-23T01:54:36;97167.19;;;9.58;74.61
80798;BME280;70202;52.238;10.680;2024-02-23T01:55:36;97327.00;;;10.49;74.61
80798;BME280;70202;52.238;10.680;2024-02-23T01:56:37;97229.66;;;9.90;74.61
80798;BME280;70202;52.238;10.680;2024-02-23T01:57:39;97148.94;;;9.48;74.08
80798;BME280;70202;52.238;10.680;2024-02-23T01:58:40;97265.09;;;10.20;74.21
80798;BME280;70202;52.238;10.680;2024-02-23T01:59:41;97215.88;;;9.82;74.38
80798;BME280;70202;52.238;10.680;2024-02-23T02:00:41;97298.88;;;10.39;74.96
80798;BME280;70202;52.238;10.680;2024-02-23T02:01:43;97325.88;;;10.51;74.73
80798;BME280;70202;52.238;10.680;2024-02-23T02:02:44;97310.63;;;10.39;74.66
80798;BME280;70202;52.238;10.680;2024-02-23T02:03:45;97227.06;;;9.88;74.15
80798;BME280;70202;52.238;10.680;2024-02-23T02:04:45;97333.34;;;10.49;74.19
80798;BME280;70202;52.238;10.680;2024-02-23T02:05:46;97330.88;;;10.46;74.39
80798;BME280;70202;52.238;10.680;2024-02-23T02:06:46;97240.13;;;9.94;74.42
80798;BME280;70202;52.238;10.680;2024-02-23T02:07:49;97258.88;;;9.97;74.42
80798;BME280;70202;52.238;10.680;2024-02-23T02:08:53;97240.34;;;9.82;74.36
80798;BME280;70202;52.238;10.680;2024-02-23T02:09:54;97364.13;;;10.50;73.93
80798;BME280;70202;52.238;10.680;2024-02-23T02:10:54;97320.19;;;10.22;74.45
80798;BME280;70202;52.238;10.680;2024-02-23T02:11:55;97257.81;;;9.89;74.13
80798;BME280;70202;52.238;10.680;2024-02-23T02:12:55;97348.84;;;10.38;74.52
80798;BME280;70202;52.238;10.680;2024-02-23T02:14:01;97288.00;;;9.86;74.43
80798;BME280;70202;52.238;10.680;2024-02-23T02:15:02;97307.91;;;9.86;73.87
80798;BME280;70202;52.238;10.680;2024-02-23T02:16:03;97283.22;;;9.78;74.01
80798;BME280;70202;52.238;10.680;2024-02-23T02:17:04;97372.59;;;10.36;74.68
80798;BME280;70202;52.238;10.680;2024-02-23T02:18:04;97333.66;;;10.03;74.91
80798;BME280;70202;52.238;10.680;2024-02-23T02:19:05;97370.69;;;10.15;74.66
80798;BME280;70202;52.238;10.680;2024-02-23T02:20:07;97371.41;;;10.17;74.55
80798;BME280;70202;52.238;10.680;2024-02-23T02:21:11;97329.81;;;9.73;74.39
80798;BME280;70202;52.238;10.680;2024-02-23T02:22:12;97303.88;;;9.69;74.98
80798;BME280;70202;52.238;10.680;2024-02-23T02:23:12;97339.94;;;9.71;74.82
80798;BME280;70202;52.238;10.680;2024-02-23T02:24:13;97407.78;;;10.16;75.10
80798;BME280;70202;52.238;10.680;2024-02-23T02:25:14;97324.38;;;9.73;74.71
80798;BME280;70202;52.238;10.680;2024-02-23T02:26:15;97298.22;;;9.61;74.35
80798;BME280;70202;52.238;10.680;2024-02-23T02:27:16;97408.81;;;10.04;74.51
80798;BME280;70202;52.238;10.680;2024-02-23T02:28:16;97354.66;;;9.69;73.88
80798;BME280;70202;52.238;10.680;2024-02-23T02:29:17;97354.69;;;9.46;74.70
80798;BME280;70202;52.238;10.680;2024-02-23T02:30:17;97352.34;;;9.42;73.87
80798;BME280;70202;52.238;10.680;2024-02-23T02:31:18;97424.66;;;9.88;74.46
80798;BME280;70202;52.238;10.680;2024-02-23T02:32:18;97365.91;;;9.42;74.55
80798;BME280;70202;52.238;10.680;2024-02-23T02:33:19;97351.75;;;9.27;74.52
80798;BME280;70202;52.238;10.680;2024-02-23T02:34:20;97390.13;;;9.56;74.07
80798;BME280;70202;52.238;10.680;2024-02-23T02:35:20;97428.84;;;9.81;74.39
80798;BME280;70202;52.238;10.680;2024-02-23T02:36:20;97414.16;;;9.72;74.53
80798;BME280;70202;52.238;10.680;2024-02-23T02:37:21;97452.13;;;9.73;74.53
80798;BME280;70202;52.238;10.680;2024-02-23T02:38:21;97445.31;;;9.68;73.40
80798;BME280;70202;52.238;10.680;2024-02-23T02:39:22;97456.06;;;9.69;73.52
80798;BME280;70202;52.238;10.680;2024-02-23T02:40:22;97472.75;;;9.54;74.01
80798;BME280;70202;52.238;10.680;2024-02-23T02:41:24;97495.34;;;9.76;73.35
80798;BME280;70202;52.238;10.680;2024-02-23T02:42:28;97512.78;;;9.74;73.96
80798;BME280;70202;52.238;10.680;2024-02-23T02:43:28;97478.78;;;9.46;73.94
80798;BME280;70202;52.238;10.680;2024-02-23T02:44:29;97482.38;;;9.46;73.53
80798;BME280;70202;52.238;10.680;2024-02-23T02:45:31;97505.38;;;9.65;73.66
80798;BME280;70202;52.238;10.680;2024-02-23T02:46:32;97411.09;;;8.98;74.32
80798;BME280;70202;52.238;10.680;2024-02-23T02:47:32;97523.28;;;9.56;74.18
80798;BME280;70202;52.238;10.680;2024-02-23T02:48:33;97417.63;;;8.95;74.16
80798;BME280;70202;52.238;10.680;2024-02-23T02:49:33;97509.03;;;9.41;74.51
80798;BME280;70202;52.238;10.680;2024-02-23T02:50:33;97548.69;;;9.44;74.67
80798;BME280;70202;52.238;10.680;2024-02-23T02:51:34;97511.38;;;9.23;74.31
80798;BME280;70202;52.238;10.680;2024-02-23T02:52:35;97526.94;;;9.33;74.71
80798;BME280;70202;52.238;10.680;2024-02-23T02:53:35;97488.13;;;9.08;74.36
80798;BME280;70202;52.238;10.680;2024-02-23T02:54:36;97446.81;;;8.69;74.75
80798;BME280;70202;52.238;10.680;2024-02-23T02:55:39;97513.69;;;9.06;74.85
80798;BME280;70202;52.238;10.680;2024-02-23T02:56:43;97518.25;;;9.05;75.02
80798;BME280;70202;52.238;10.680;2024-02-23T02:57:44;97554.19;;;9.20;75.18
80798;BME280;70202;52.238;10.680;2024-02-23T02:58:45;97433.31;;;8.45;75.48
80798;BME280;70202;52.238;10.680;2024-02-23T02:59:45;97363.44;;;8.01;75.15
80798;BME280;70202;52.238;10.680;2024-02-23T03:00:46;97474.88;;;8.57;75.41
80798;BME280;70202;52.238;10.680;2024-02-23T03:01:46;97556.00;;;9.08;75.83
80798;BME280;70202;52.238;10.680;2024-02-23T03:02:49;97567.47;;;9.00;75.63
80798;BME280;70202;52.238;10.680;2024-02-23T03:03:50;97414.03;;;8.13;75.73
80798;BME280;70202;52.238;10.680;2024-02-23T03:04:51;97541.63;;;8.95;75.74
80798;BME280;70202;52.238;10.680;2024-02-23T03:05:51;97574.63;;;9.01;76.00
80798;BME280;70202;52.238;10.680;2024-02-23T03:06:51;97480.50;;;8.43;75.95
80798;BME280;70202;52.238;10.680;2024-02-23T03:07:52;97558.78;;;8.95;76.28
80798;BME280;70202;52.238;10.680;2024-02-23T03:08:52;97563.34;;;8.95;76.49
80798;BME280;70202;52.238;10.680;2024-02-23T03:09:52;97422.28;;;8.12;76.35
80798;BME280;70202;52.238;10.680;2024-02-23T03:10:54;97583.63;;;9.02;76.30
80798;BME280;70202;52.238;10.680;2024-02-23T03:11:54;97495.69;;;8.45;76.69
80798;BME280;70202;52.238;10.680;2024-02-23T03:12:55;97593.91;;;9.10;76.54
80798;BME280;70202;52.238;10.680;2024-02-23T03:13:55;97522.41;;;8.63;77.14
80798;BME280;70202;52.238;10.680;2024-02-23T03:14:55;97505.25;;;8.38;76.67
80798;BME280;70202;52.238;10.680;2024-02-23T03:15:56;97542.47;;;8.60;77.06
80798;BME280;70202;52.238;10.680;2024-02-23T03:16:56;97474.25;;;8.30;76.95
80798;BME280;70202;52.238;10.680;2024-02-23T03:17:57;97616.50;;;9.10;76.57
80798;BME280;70202;52.238;10.680;2024-02-23T03:18:57;97551.06;;;8.78;77.28
80798;BME280;70202;52.238;10.680;2024-02-23T03:19:58;97456.81;;;7.97;76.51
80798;BME280;70202;52.238;10.680;2024-02-23T03:20:59;97560.38;;;8.63;76.01
80798;BME280;70202;52.238;10.680;2024-02-23T03:21:59;97622.00;;;8.97;76.71
80798;BME280;70202;52.238;10.680;2024-02-23T03:23:00;97595.13;;;8.82;76.86
80798;BME280;70202;52.238;10.680;2024-02-23T03:24:01;97621.69;;;8.89;76.31
80798;BME280;70202;52.238;10.680;2024-02-23T03:25:02;97646.81;;;9.04;77.16
80798;BME280;70202;52.238;10.680;2024-02-23T03:26:08;97585.50;;;8.77;77.09
80798;BME280;70202;52.238;10.680;2024-02-23T03:27:09;97636.44;;;8.98;76.62
80798;BME280;70202;52.238;10.680;2024-02-23T03:28:09;97640.78;;;9.00;77.14
80798;BME280;70202;52.238;10.680;2024-02-23T03:29:10;97547.22;;;8.45;76.96
80798;BME280;70202;52.238;10.680;2024-02-23T03:30:10;97569.31;;;8.52;76.83
80798;BME280;70202;52.238;10.680;2024-02-23T03:31:11;97634.94;;;8.94;76.97
80798;BME280;70202;52.238;10.680;2024-02-23T03:32:11;97617.00;;;8.91;76.85
80798;BME280;70202;52.238;10.680;2024-02-23T03:33:12;97576.13;;;8.58;76.58
80798;BME280;70202;52.238;10.680;2024-02-23T03:34:12;97553.16;;;8.50;76.89
80798;BME280;70202;52.238;10.680;2024-02-23T03:35:13;97533.97;;;8.41;77.16
80798;BME280;70202;52.238;10.680;2024-02-23T03:36:13;97609.22;;;8.87;77.52
80798;BME280;70202;52.238;10.680;2024-02-23T03:37:14;97542.03;;;8.42;76.75
80798;BME280;70202;52.238;10.680;2024-02-23T03:38:14;97484.44;;;8.02;76.65
80798;BME280;70202;52.238;10.680;2024-02-23T03:39:14;97578.97;;;8.56;76.97
80798;BME280;70202;52.238;10.680;2024-02-23T03:40:15;97621.53;;;8.80;77.27
80798;BME280;70202;52.238;10.680;2024-02-23T03:41:18;97544.84;;;8.41;76.76
80798;BME280;70202;52.238;10.680;2024-02-23T03:42:18;97607.66;;;8.71;77.26
80798;BME280;70202;52.238;10.680;2024-02-23T03:43:19;97567.53;;;8.40;77.06
80798;BME280;70202;52.238;10.680;2024-02-23T03:44:19;97634.00;;;8.82;76.83
80798;BME280;70202;52.238;10.680;2024-02-23T03:45:19;97646.13;;;8.89;77.25
80798;BME280;70202;52.238;10.680;2024-02-23T03:46:20;97557.31;;;8.31;76.86
80798;BME280;70202;52.238;10.680;2024-02-23T03:47:21;97614.41;;;8.66;76.50
80798;BME280;70202;52.238;10.680;2024-02-23T03:48:21;97676.94;;;9.01;76.52
80798;BME280;70202;52.238;10.680;2024-02-23T03:49:22;97483.81;;;7.86;76.74
80798;BME280;70202;52.238;10.680;2024-02-23T03:50:22;97538.50;;;8.16;77.17
80798;BME280;70202;52.238;10.680;2024-02-23T03:51:23;97602.34;;;8.46;76.87
80798;BME280;70202;52.238;10.680;2024-02-23T03:52:23;97616.00;;;8.44;76.65
80798;BME280;70202;52.238;10.680;2024-02-23T03:53:24;97613.41;;;8.43;77.04
80798;BME280;70202;52.238;10.680;2024-02-23T03:54:24;97583.72;;;8.29;76.28
80798;BME280;70202;52.238;10.680;2024-02-23T03:55:24;97572.56;;;8.20;77.29
80798;BME280;70202;52.238;10.680;2024-02-23T03:56:25;97577.63;;;8.25;77.02
80798;BME280;70202;52.238;10.680;2024-02-23T03:57:25;97635.22;;;8.41;76.86
80798;BME280;70202;52.238;10.680;2024-02-23T03:58:25;97584.59;;;8.16;76.71
80798;BME280;70202;52.238;10.680;2024-02-23T03:59:26;97693.13;;;8.90;77.31
80798;BME280;70202;52.238;10.680;2024-02-23T04:00:26;97529.03;;;7.85;76.56
80798;BME280;70202;52.238;10.680;2024-02-23T04:01:27;97696.41;;;8.82;76.42
80798;BME280;70202;52.238;10.680;2024-02-23T04:02:27;97712.13;;;8.90;77.13
80798;BME280;70202;52.238;10.680;2024-02-23T04:03:27;97699.25;;;8.81;76.47
80798;BME280;70202;52.238;10.680;2024-02-23T04:04:28;97605.44;;;8.16;76.26
80798;BME280;70202;52.238;10.680;2024-02-23T04:05:28;97613.53;;;8.29;75.76
80798;BME280;70202;52.238;10.680;2024-02-23T04:06:29;97694.38;;;8.73;76.66
80798;BME280;70202;52.238;10.680;2024-02-23T04:07:29;97635.88;;;8.19;76.32
80798;BME280;70202;52.238;10.680;2024-02-23T04:08:30;97661.25;;;8.44;76.36
80798;BME280;70202;52.238;10.680;2024-02-23T04:09:31;97686.75;;;8.54;76.54
80798;BME280;70202;52.238;10.680;2024-02-23T04:10:32;97694.88;;;8.54;76.33
80798;BME280;70202;52.238;10.680;2024-02-23T04:11:32;97668.53;;;8.43;75.99
80798;BME280;70202;52.238;10.680;2024-02-23T04:12:33;97720.00;;;8.69;75.80
80798;BME280;70202;52.238;10.680;2024-02-23T04:13:33;97707.34;;;8.57;76.08
80798;BME280;70202;52.238;10.680;2024-02-23T04:14:34;97701.16;;;8.55;76.81
80798;BME280;70202;52.238;10.680;2024-02-23T04:15:37;97678.94;;;8.37;76.21
80798;BME280;70202;52.238;10.680;2024-02-23T04:16:37;97643.59;;;8.00;76.46
80798;BME280;70202;52.238;10.680;2024-02-23T04:17:37;97660.72;;;8.13;77.04
80798;BME280;70202;52.238;10.680;2024-02-23T04:18:38;97729.47;;;8.63;76.61
80798;BME280;70202;52.238;10.680;2024-02-23T04:19:40;97632.75;;;8.00;77.27
80798;BME280;70202;52.238;10.680;2024-02-23T04:20:41;97734.13;;;8.61;76.87
80798;BME280;70202;52.238;10.680;2024-02-23T04:21:41;97651.19;;;8.20;76.90
80798;BME280;70202;52.238;10.680;2024-02-23T04:22:42;97599.47;;;7.85;76.81
80798;BME280;70202;52.238;10.680;2024-02-23T04:23:46;97712.53;;;8.60;77.00
80798;BME280;70202;52.238;10.680;2024-02-23T04:24:46;97674.28;;;8.26;76.55
80798;BME280;70202;52.238;10.680;2024-02-23T04:25:46;97737.81;;;8.73;77.03
80798;BME280;70202;52.238;10.680;2024-02-23T04:26:47;97663.63;;;8.23;76.92
80798;BME280;70202;52.238;10.680;2024-02-23T04:27:47;97684.34;;;8.24;76.36
80798;BME280;70202;52.238;10.680;2024-02-23T04:28:48;97652.38;;;8.16;76.72
80798;BME280;70202;52.238;10.680;2024-02-23T04:29:48;97657.16;;;8.13;76.80
80798;BME280;70202;52.238;10.680;2024-02-23T04:30:49;97726.84;;;8.62;76.80
80798;BME280;70202;52.238;10.680;2024-02-23T04:31:49;97638.38;;;8.10;76.58
80798;BME280;70202;52.238;10.680;2024-02-23T04:32:49;97730.13;;;8.67;76.06
80798;BME280;70202;52.238;10.680;2024-02-23T04:33:50;97693.78;;;8.44;75.96
80798;BME280;70202;52.238;10.680;2024-02-23T04:34:50;97685.66;;;8.18;76.65
80798;BME280;70202;52.238;10.680;2024-02-23T04:35:51;97732.41;;;8.60;76.49
80798;BME280;70202;52.238;10.680;2024-02-23T04:36:51;97755.28;;;8.69;76.00
80798;BME280;70202;52.238;10.680;2024-02-23T04:37:51;97732.75;;;8.56;76.40
80798;BME280;70202;52.238;10.680;2024-02-23T04:38:52;97733.94;;;8.51;76.65
80798;BME280;70202;52.238;10.680;2024-02-23T04:39:52;97609.78;;;7.67;76.04
80798;BME280;70202;52.238;10.680;2024-02-23T04:40:53;97676.13;;;8.13;76.41
80798;BME280;70202;52.238;10.680;2024-02-23T04:41:53;97721.56;;;8.35;76.72
80798;BME280;70202;52.238;10.680;2024-02-23T04:42:54;97766.94;;;8.58;76.66
80798;BME280;70202;52.238;10.680;2024-02-23T04:43:55;97760.00;;;8.41;76.70
80798;BME280;70202;52.238;10.680;2024-02-23T04:45:00;97769.41;;;8.48;76.38
80798;BME280;70202;52.238;10.680;2024-02-23T04:46:00;97638.19;;;7.74;76.59
80798;BME280;70202;52.238;10.680;2024-02-23T04:47:01;97683.72;;;7.95;76.17
80798;BME280;70202;52.238;10.680;2024-02-23T04:48:01;97736.75;;;8.24;77.22
80798;BME280;70202;52.238;10.680;2024-02-23T04:49:02;97694.66;;;7.93;76.72
80798;BME280;70202;52.238;10.680;2024-02-23T04:50:03;97682.53;;;7.86;76.29
80798;BME280;70202;52.238;10.680;2024-02-23T04:51:04;97759.41;;;8.36;76.42
80798;BME280;70202;52.238;10.680;2024-02-23T04:52:05;97785.81;;;8.47;76.50
80798;BME280;70202;52.238;10.680;2024-02-23T04:53:05;97589.75;;;7.32;76.68
80798;BME280;70202;52.238;10.680;2024-02-23T04:54:06;97781.78;;;8.40;76.55
80798;BME280;70202;52.238;10.680;2024-02-23T04:55:07;97682.75;;;7.83;77.30
80798;BME280;70202;52.238;10.680;2024-02-23T04:56:07;97778.38;;;8.36;76.54
80798;BME280;70202;52.238;10.680;2024-02-23T04:57:08;97761.16;;;8.24;76.56
80798;BME280;70202;52.238;10.680;2024-02-23T04:58:08;97762.97;;;8.24;76.72
80798;BME280;70202;52.238;10.680;2024-02-23T04:59:09;97721.44;;;7.98;77.25
80798;BME280;70202;52.238;10.680;2024-02-23T05:00:09;97813.16;;;8.44;76.75
80798;BME280;70202;52.238;10.680;2024-02-23T05:01:10;97810.44;;;8.44;77.35
80798;BME280;70202;52.238;10.680;2024-02-23T05:02:11;97806.84;;;8.43;77.28
80798;BME280;70202;52.238;10.680;2024-02-23T05:03:11;97797.53;;;8.47;77.39
80798;BME280;70202;52.238;10.680;2024-02-23T05:04:12;97800.13;;;8.49;77.85
80798;BME280;70202;52.238;10.680;2024-02-23T05:05:12;97810.88;;;8.50;77.09
80798;BME280;70202;52.238;10.680;2024-02-23T05:06:12;97713.63;;;7.93;77.14
80798;BME280;70202;52.238;10.680;2024-02-23T05:07:13;97799.50;;;8.45;77.25
80798;BME280;70202;52.238;10.680;2024-02-23T05:08:13;97800.34;;;8.46;77.45
80798;BME280;70202;52.238;10.680;2024-02-23T05:09:14;97788.19;;;8.39;76.80
80798;BME280;70202;52.238;10.680;2024-02-23T05:10:14;97651.59;;;7.50;77.01
80798;BME280;70202;52.238;10.680;2024-02-23T05:11:15;97829.88;;;8.50;76.88
80798;BME280;70202;52.238;10.680;2024-02-23T05:12:16;97793.47;;;8.27;77.06
80798;BME280;70202;52.238;10.680;2024-02-23T05:13:17;97821.94;;;8.47;76.30
80798;BME280;70202;52.238;10.680;2024-02-23T05:14:17;97807.19;;;8.39;77.13
80798;BME280;70202;52.238;10.680;2024-02-23T05:15:18;97776.66;;;8.22;76.80
80798;BME280;70202;52.238;10.680;2024-02-23T05:16:18;97745.41;;;8.04;76.97
80798;BME280;70202;52.238;10.680;2024-02-23T05:17:18;97721.88;;;7.92;76.84
80798;BME280;70202;52.238;10.680;2024-02-23T05:18:19;97727.31;;;7.92;76.90
80798;BME280;70202;52.238;10.680;2024-02-23T05:19:19;97764.94;;;8.09;77.16
80798;BME280;70202;52.238;10.680;2024-02-23T05:20:19;97807.34;;;8.36;76.45